Time;durP1;ratioP1;P1;durP2;ratioP2;P2;SDS_P1;SDS_P2;PMS_P1;PMS_P2;Temp;Humidity;BMP_temperature;BMP_pressure;BME280_temperature;BME280_humidity;BME280_pressure;Samples;Min_cycle;Max_cycle;Signal;HPM_P1;HPM_P2
2023/10/02 00:05:07;;;;;;;23.88;10.73;;;17.10;99.90;;;;;;5052650;28;20094;-80
2023/10/02 00:07:42;;;;;;;20.88;9.95;;;17.10;99.90;;;;;;5043113;28;20052;-80
2023/10/02 00:10:11;;;;;;;18.13;9.65;;;17.00;99.90;;;;;;5041012;28;20769;-79
2023/10/02 00:12:37;;;;;;;20.92;9.27;;;17.00;99.90;;;;;;5041219;28;20053;-80
2023/10/02 00:15:14;;;;;;;22.80;9.85;;;17.00;99.90;;;;;;5043934;28;20033;-81
2023/10/02 00:17:43;;;;;;;22.73;10.52;;;17.00;99.90;;;;;;5024222;28;20505;-79
2023/10/02 00:20:15;;;;;;;21.20;9.75;;;17.00;99.90;;;;;;5040384;28;20506;-81
2023/10/02 00:22:43;;;;;;;20.80;9.75;;;16.90;99.90;;;;;;5022522;28;20049;-81
2023/10/02 00:25:16;;;;;;;22.80;10.13;;;16.90;99.90;;;;;;5033925;28;20044;-81
2023/10/02 00:27:48;;;;;;;22.80;9.93;;;16.90;99.90;;;;;;5043825;28;20396;-81
2023/10/02 00:30:15;;;;;;;24.30;10.57;;;16.90;99.90;;;;;;5034129;28;20049;-80
2023/10/02 00:32:45;;;;;;;23.30;10.48;;;16.90;99.90;;;;;;5027473;28;20045;-79
2023/10/02 00:35:11;;;;;;;20.15;10.48;;;16.90;99.90;;;;;;5024979;28;20057;-81
2023/10/02 00:37:47;;;;;;;19.50;10.48;;;16.90;99.90;;;;;;5043308;28;20032;-82
2023/10/02 00:40:15;;;;;;;23.05;11.18;;;16.90;99.90;;;;;;5041841;28;20120;-79
2023/10/02 00:42:41;;;;;;;21.30;11.18;;;16.90;99.90;;;;;;5040242;28;20049;-80
2023/10/02 00:45:08;;;;;;;18.30;10.38;;;16.90;99.90;;;;;;5040150;28;20102;-79
2023/10/02 00:47:41;;;;;;;24.08;10.95;;;16.90;99.90;;;;;;5025065;28;20076;-80
2023/10/02 00:50:07;;;;;;;23.05;10.80;;;16.90;99.90;;;;;;5025316;28;20091;-77
2023/10/02 00:52:33;;;;;;;22.35;10.70;;;16.80;99.90;;;;;;5024738;28;20084;-79
2023/10/02 00:55:05;;;;;;;21.63;10.52;;;16.80;99.90;;;;;;5025247;28;20040;-80
2023/10/02 00:57:35;;;;;;;18.42;10.10;;;16.70;99.90;;;;;;5041869;28;20079;-79
2023/10/02 01:00:30;;;;;;;23.55;11.68;;;16.70;99.90;;;;;;5042840;28;20049;-80
2023/10/02 01:02:50;;;;;;;24.60;11.48;;;16.70;99.90;;;;;;5042730;28;20157;-80
2023/10/02 01:05:21;;;;;;;24.10;10.55;;;16.60;99.90;;;;;;5042817;28;20041;-79
2023/10/02 01:07:53;;;;;;;25.05;10.57;;;16.60;99.90;;;;;;5022001;28;20456;-79
2023/10/02 01:10:19;;;;;;;24.30;11.93;;;16.60;99.90;;;;;;5039679;28;20053;-79
2023/10/02 01:12:49;;;;;;;24.13;11.48;;;16.60;99.90;;;;;;5041134;28;20045;-80
2023/10/02 01:15:19;;;;;;;27.02;11.98;;;16.60;99.90;;;;;;5024587;28;20102;-78
2023/10/02 01:17:49;;;;;;;26.90;12.70;;;16.50;99.90;;;;;;5023077;28;20145;-78
2023/10/02 01:20:21;;;;;;;27.20;11.75;;;16.60;99.90;;;;;;5021211;28;20049;-79
2023/10/02 01:22:55;;;;;;;26.45;13.50;;;16.50;99.90;;;;;;5039748;28;20515;-80
2023/10/02 01:25:24;;;;;;;24.52;12.10;;;16.50;99.90;;;;;;5013047;28;20057;-79
2023/10/02 01:27:51;;;;;;;24.08;12.80;;;16.50;99.90;;;;;;5028956;28;20076;-79
2023/10/02 01:30:20;;;;;;;26.45;11.65;;;16.50;99.90;;;;;;5021326;28;20045;-78
2023/10/02 01:35:51;;;;;;;31.30;12.85;;;16.50;99.90;;;;;;5027157;28;20067;-77
2023/10/02 01:38:35;;;;;;;25.30;13.40;;;16.50;99.90;;;;;;5029525;28;20061;-80
2023/10/02 01:41:06;;;;;;;28.75;14.32;;;16.50;99.90;;;;;;5021243;28;20052;-79
2023/10/02 01:43:45;;;;;;;23.42;12.95;;;16.50;99.90;;;;;;5022436;28;20144;-81
2023/10/02 01:46:17;;;;;;;27.58;14.07;;;16.50;99.90;;;;;;5047765;28;20131;-78
2023/10/02 01:48:44;;;;;;;27.90;13.45;;;16.40;99.90;;;;;;5039167;28;20149;-80
2023/10/02 01:51:15;;;;;;;29.75;13.75;;;16.40;99.90;;;;;;5021320;28;20396;-80
2023/10/02 01:53:51;;;;;;;26.88;14.32;;;16.40;99.90;;;;;;5016050;28;20085;-79
2023/10/02 01:56:18;;;;;;;30.05;14.07;;;16.50;99.90;;;;;;5032308;28;20074;-80
2023/10/02 01:58:45;;;;;;;29.60;14.30;;;16.50;99.90;;;;;;5042029;28;20454;-79
2023/10/02 02:01:11;;;;;;;25.65;13.35;;;16.40;99.90;;;;;;5042292;28;20043;-81
2023/10/02 02:03:41;;;;;;;29.58;14.80;;;16.40;99.90;;;;;;5021723;28;20467;-81
2023/10/02 02:06:08;;;;;;;29.05;14.10;;;16.40;99.90;;;;;;5025920;28;20136;-81
2023/10/02 02:08:43;;;;;;;30.85;14.30;;;16.40;99.90;;;;;;5046783;28;20049;-80
2023/10/02 02:11:18;;;;;;;27.83;13.80;;;16.40;99.90;;;;;;5020665;28;20476;-80
2023/10/02 02:13:44;;;;;;;28.20;13.68;;;16.40;99.90;;;;;;5021764;28;20128;-80
2023/10/02 02:16:33;;;;;;;28.55;14.40;;;16.40;99.90;;;;;;5023763;28;20484;-78
2023/10/02 02:19:05;;;;;;;29.50;14.07;;;16.40;99.90;;;;;;5020607;28;20053;-79
2023/10/02 02:21:32;;;;;;;24.35;13.57;;;16.40;99.90;;;;;;5020361;28;20060;-79
2023/10/02 02:24:07;;;;;;;25.70;14.35;;;16.30;99.90;;;;;;5022052;28;20053;-79
2023/10/02 02:26:34;;;;;;;31.35;15.07;;;16.30;99.90;;;;;;5041223;28;20755;-80
2023/10/02 02:29:03;;;;;;;24.85;13.35;;;16.30;99.90;;;;;;5039787;28;20052;-79
2023/10/02 02:31:30;;;;;;;28.85;14.77;;;16.30;99.90;;;;;;5038191;28;20049;-80
2023/10/02 02:34:14;;;;;;;30.48;15.18;;;16.30;99.90;;;;;;5038854;28;20132;-80
2023/10/02 02:36:42;;;;;;;26.85;14.48;;;16.30;99.90;;;;;;5041278;28;20045;-79
2023/10/02 02:39:15;;;;;;;32.17;15.80;;;16.20;99.90;;;;;;5039681;28;20408;-79
2023/10/02 02:44:46;;;;;;;28.85;14.25;;;16.20;99.90;;;;;;5025354;28;20048;-79
2023/10/02 02:47:14;;;;;;;28.13;15.35;;;16.30;99.90;;;;;;5040441;28;20126;-78
2023/10/02 02:49:48;;;;;;;27.38;14.23;;;16.30;99.90;;;;;;5008813;28;20354;-79
2023/10/02 02:52:24;;;;;;;30.55;15.40;;;16.30;99.90;;;;;;5031403;28;20488;-79
2023/10/02 02:55:17;;;;;;;29.27;15.23;;;16.30;99.90;;;;;;5025657;28;20483;-79
2023/10/02 02:57:45;;;;;;;27.30;15.18;;;16.30;99.90;;;;;;5023985;28;20488;-78
2023/10/02 03:00:25;;;;;;;32.60;15.50;;;16.30;99.90;;;;;;5041219;28;20585;-80
2023/10/02 03:02:54;;;;;;;29.40;14.88;;;16.30;99.90;;;;;;5032031;28;20049;-79
2023/10/02 03:05:22;;;;;;;33.47;15.75;;;16.30;99.90;;;;;;5041501;28;20491;-78
2023/10/02 03:07:56;;;;;;;33.53;15.60;;;16.30;99.90;;;;;;5038062;28;20171;-78
2023/10/02 03:10:27;;;;;;;30.67;15.40;;;16.40;99.90;;;;;;5019717;28;20050;-79
2023/10/02 03:12:53;;;;;;;31.15;16.00;;;16.40;99.90;;;;;;5040941;28;20095;-79
2023/10/02 03:18:22;;;;;;;31.15;15.73;;;16.30;99.90;;;;;;5049482;28;20419;-79
2023/10/02 03:20:49;;;;;;;31.42;15.25;;;16.30;99.90;;;;;;5021743;28;20059;-79
2023/10/02 03:23:18;;;;;;;27.90;14.95;;;16.40;99.90;;;;;;5038102;28;20124;-79
2023/10/02 03:25:47;;;;;;;30.80;15.32;;;16.40;99.90;;;;;;5019844;28;20148;-78
2023/10/02 03:28:27;;;;;;;33.72;15.27;;;16.40;99.90;;;;;;5049204;28;20049;-79
2023/10/02 03:30:53;;;;;;;25.88;13.80;;;16.30;99.90;;;;;;5040606;28;20443;-79
2023/10/02 03:33:20;;;;;;;28.15;15.05;;;16.30;99.90;;;;;;5038010;28;20060;-79
2023/10/02 03:36:08;;;;;;;37.20;16.25;;;16.30;99.90;;;;;;5038139;28;20049;-79
2023/10/02 03:38:35;;;;;;;30.05;14.85;;;16.30;99.90;;;;;;5049486;28;20080;-80
2023/10/02 03:41:06;;;;;;;27.67;14.82;;;16.30;99.90;;;;;;5040472;28;20045;-79
2023/10/02 03:43:37;;;;;;;26.40;15.00;;;16.30;99.90;;;;;;5037911;28;20076;-78
2023/10/02 03:46:06;;;;;;;30.50;14.15;;;16.30;99.90;;;;;;5037380;28;20431;-79
2023/10/02 03:48:33;;;;;;;29.48;14.60;;;16.30;99.90;;;;;;5041290;28;20445;-78
2023/10/02 03:51:03;;;;;;;30.35;14.93;;;16.30;99.90;;;;;;5023186;28;20045;-79
2023/10/02 03:53:28;;;;;;;28.85;14.75;;;16.20;99.90;;;;;;5024253;28;20123;-78
2023/10/02 03:56:36;;;;;;;25.90;13.98;;;16.20;99.90;;;;;;5023466;28;20488;-79
2023/10/02 03:58:51;;;;;;;25.88;14.82;;;16.20;99.90;;;;;;5045499;28;20056;-80
2023/10/02 04:01:31;;;;;;;36.35;16.05;;;16.20;99.90;;;;;;5026835;28;20056;-79
2023/10/02 04:04:19;;;;;;;30.65;14.70;;;16.20;99.90;;;;;;5046148;28;20080;-78
2023/10/02 04:06:54;;;;;;;26.88;14.55;;;16.10;99.90;;;;;;5023269;28;20045;-79
2023/10/02 04:11:46;;;;;;;27.98;14.65;;;16.20;99.90;;;;;;5024732;28;20024;-80
2023/10/02 04:14:18;;;;;;;27.30;13.85;;;16.10;99.90;;;;;;5025815;28;20143;-79
2023/10/02 04:16:48;;;;;;;31.08;15.02;;;16.00;99.90;;;;;;5024663;28;20122;-80
2023/10/02 04:19:15;;;;;;;27.02;14.23;;;16.00;99.90;;;;;;5040800;28;20038;-79
2023/10/02 04:21:42;;;;;;;26.15;14.23;;;16.00;99.90;;;;;;5040900;28;20049;-79
2023/10/02 04:24:09;;;;;;;29.33;14.38;;;16.00;99.90;;;;;;5025657;28;20118;-79
2023/10/02 04:26:36;;;;;;;28.88;15.10;;;15.90;99.90;;;;;;5025449;28;20053;-78
2023/10/02 04:29:28;;;;;;;28.00;14.05;;;16.00;99.90;;;;;;5025394;28;20061;-78
2023/10/02 04:34:46;;;;;;;;;;;15.80;99.90;;;;;;5025813;28;20128;-78
2023/10/02 04:37:19;;;;;;;24.95;13.90;;;15.80;99.90;;;;;;5022829;28;19947;-79
2023/10/02 04:42:29;;;;;;;32.45;15.98;;;15.80;99.90;;;;;;5043034;28;20601;-78
2023/10/02 04:44:57;;;;;;;32.80;16.13;;;15.80;99.90;;;;;;5043171;28;20083;-77
2023/10/02 04:47:27;;;;;;;27.95;15.15;;;15.80;99.90;;;;;;5022810;28;20402;-78
2023/10/02 04:55:49;;;;;;;30.90;15.25;;;15.70;99.90;;;;;;4999212;28;20052;-78
2023/10/02 04:58:20;;;;;;;28.77;15.48;;;15.70;99.90;;;;;;4981065;28;20065;-78
2023/10/02 05:01:24;;;;;;;30.30;15.30;;;15.70;99.90;;;;;;4997681;28;20498;-78
2023/10/02 05:03:55;;;;;;;28.63;15.82;;;15.70;99.90;;;;;;4999726;28;20064;-79
2023/10/02 05:11:55;;;;;;;30.50;15.77;;;15.70;99.90;;;;;;4906656;29;20139;-80
2023/10/02 05:14:29;;;;;;;32.45;15.38;;;15.60;99.90;;;;;;4903458;29;20063;-78
2023/10/02 05:17:17;;;;;;;30.70;16.20;;;15.70;99.90;;;;;;4920534;29;20107;-80
2023/10/02 05:19:56;;;;;;;30.30;15.85;;;15.70;99.90;;;;;;4905654;29;20052;-79
2023/10/02 05:22:27;;;;;;;35.58;15.82;;;15.70;99.90;;;;;;4904751;29;20166;-79
2023/10/02 05:24:59;;;;;;;29.48;15.70;;;15.60;99.90;;;;;;4922292;29;20056;-79
2023/10/02 05:27:37;;;;;;;30.25;15.90;;;15.60;99.90;;;;;;4922744;29;20131;-79
2023/10/02 05:30:17;;;;;;;33.45;16.42;;;15.70;99.90;;;;;;4922856;29;20173;-78
2023/10/02 05:32:44;;;;;;;34.45;16.50;;;15.70;99.90;;;;;;4945947;28;20074;-77
2023/10/02 05:37:44;;;;;;;35.95;16.98;;;15.60;99.90;;;;;;4941974;29;20507;-79
2023/10/02 05:48:15;;;;;;;26.17;15.07;;;15.60;99.90;;;;;;5023647;28;20430;-80
2023/10/02 05:50:47;;;;;;;33.50;17.38;;;15.50;99.90;;;;;;5023893;28;20056;-78
2023/10/02 05:53:15;;;;;;;31.35;16.65;;;15.50;99.90;;;;;;5022285;28;20060;-78
2023/10/02 05:58:31;;;;;;;33.47;16.08;;;15.50;99.90;;;;;;5029119;28;20657;-77
2023/10/02 06:01:03;;;;;;;32.35;16.38;;;15.60;99.90;;;;;;5020578;28;20397;-78
2023/10/02 06:03:34;;;;;;;26.55;15.63;;;15.50;99.90;;;;;;5006949;28;20053;-76
2023/10/02 06:06:21;;;;;;;31.38;15.93;;;15.50;99.90;;;;;;5007390;28;20033;-79
2023/10/02 06:08:49;;;;;;;31.15;15.82;;;15.60;99.90;;;;;;5032138;28;20048;-79
2023/10/02 06:11:35;;;;;;;29.83;15.63;;;15.60;99.90;;;;;;5024496;28;20103;-78
2023/10/02 06:14:12;;;;;;;33.80;16.38;;;15.60;99.90;;;;;;5031846;28;20051;-78
2023/10/02 06:16:41;;;;;;;30.48;16.80;;;15.60;99.90;;;;;;5038943;28;20362;-78
2023/10/02 06:19:13;;;;;;;34.47;15.25;;;15.70;99.90;;;;;;5020443;28;20052;-76
2023/10/02 06:21:46;;;;;;;30.65;15.85;;;15.70;99.90;;;;;;5021391;28;20488;-79
2023/10/02 06:24:18;;;;;;;28.63;15.18;;;15.70;99.90;;;;;;5041223;28;20443;-78
2023/10/02 06:26:53;;;;;;;29.88;16.23;;;15.70;99.90;;;;;;5021955;28;20067;-78
2023/10/02 06:29:25;;;;;;;;;;;15.70;99.90;;;;;;5020883;28;20077;-77
2023/10/02 06:31:58;;;;;;;31.65;16.35;;;15.70;99.90;;;;;;5021723;28;20018;-78
2023/10/02 06:34:25;;;;;;;28.02;15.38;;;15.70;99.90;;;;;;5041497;28;20049;-79
2023/10/02 06:37:02;;;;;;;30.90;16.50;;;15.80;99.90;;;;;;5022298;28;20136;-80
2023/10/02 06:39:35;;;;;;;33.95;16.23;;;15.80;99.90;;;;;;5037860;28;20041;-79
2023/10/02 06:42:05;;;;;;;33.03;16.10;;;15.80;99.90;;;;;;5039653;28;20057;-76
2023/10/02 06:44:37;;;;;;;29.98;16.95;;;15.80;99.90;;;;;;5022911;28;20098;-78
2023/10/02 06:47:04;;;;;;;32.83;17.25;;;15.90;99.90;;;;;;5022029;28;20041;-78
2023/10/02 06:49:33;;;;;;;33.05;16.73;;;15.90;99.90;;;;;;5020450;28;20119;-79
2023/10/02 06:52:11;;;;;;;29.65;16.00;;;15.90;99.90;;;;;;5020211;28;20454;-78
2023/10/02 06:54:43;;;;;;;36.17;17.38;;;16.00;99.90;;;;;;5023284;28;20484;-78
2023/10/02 06:57:11;;;;;;;32.10;17.25;;;16.00;99.90;;;;;;5022516;28;20048;-79
2023/10/02 06:59:40;;;;;;;32.42;16.77;;;16.00;99.90;;;;;;5038099;28;20049;-79
2023/10/02 07:02:09;;;;;;;29.13;15.40;;;16.10;99.90;;;;;;5019680;28;20087;-79
2023/10/02 07:04:36;;;;;;;37.47;17.50;;;16.10;99.90;;;;;;5046049;28;20120;-78
2023/10/02 07:07:07;;;;;;;33.78;17.80;;;16.10;99.90;;;;;;5038100;28;20231;-79
2023/10/02 07:09:37;;;;;;;32.72;17.30;;;16.20;99.90;;;;;;5022446;28;20111;-78
2023/10/02 07:12:09;;;;;;;33.72;16.42;;;16.20;99.90;;;;;;5040893;28;20136;-78
2023/10/02 07:14:38;;;;;;;36.75;16.58;;;16.30;99.90;;;;;;5021289;28;20437;-78
2023/10/02 07:17:16;;;;;;;34.53;18.63;;;16.30;99.90;;;;;;5019880;28;20053;-79
2023/10/02 07:19:49;;;;;;;33.85;18.40;;;16.40;99.90;;;;;;5039830;28;20390;-78
2023/10/02 07:22:19;;;;;;;31.60;17.20;;;16.40;99.90;;;;;;5039435;28;20061;-78
2023/10/02 07:24:48;;;;;;;31.42;17.02;;;16.50;99.90;;;;;;5031135;28;20049;-79
2023/10/02 07:27:24;;;;;;;33.78;17.50;;;16.50;99.90;;;;;;5025071;28;20124;-77
2023/10/02 07:29:54;;;;;;;34.47;16.92;;;16.60;99.90;;;;;;5024850;28;20116;-77
2023/10/02 07:32:21;;;;;;;31.95;17.02;;;16.60;99.90;;;;;;5041195;28;20045;-77
2023/10/02 07:34:51;;;;;;;33.35;17.95;;;16.70;99.90;;;;;;5041412;28;20300;-79
2023/10/02 07:37:21;;;;;;;34.60;16.85;;;16.80;99.90;;;;;;5023429;28;20046;-78
2023/10/02 07:39:57;;;;;;;35.38;17.67;;;16.90;99.90;;;;;;5023043;28;20554;-78
2023/10/02 07:42:31;;;;;;;33.15;18.08;;;17.00;99.90;;;;;;5040157;28;20056;-78
2023/10/02 07:50:35;;;;;;;35.90;18.70;;;17.20;99.90;;;;;;5028840;28;20053;-77
2023/10/02 07:53:05;;;;;;;31.23;18.60;;;17.30;99.90;;;;;;5026655;28;20378;-77
2023/10/02 07:55:39;;;;;;;35.78;18.38;;;17.40;99.90;;;;;;5023763;28;20049;-78
2023/10/02 07:58:07;;;;;;;;;;;17.50;99.90;;;;;;5024160;28;20056;-79
2023/10/02 08:00:38;;;;;;;36.47;18.10;;;17.50;99.90;;;;;;5026913;28;19928;-76
2023/10/02 08:03:09;;;;;;;35.50;18.08;;;17.60;99.90;;;;;;5043984;28;20045;-78
2023/10/02 08:05:35;;;;;;;36.03;18.67;;;17.70;99.90;;;;;;5026282;28;20044;-78
2023/10/02 08:08:10;;;;;;;41.22;19.13;;;17.80;99.90;;;;;;5044308;28;20113;-79
2023/10/02 08:10:53;;;;;;;38.40;18.98;;;17.80;99.90;;;;;;5023692;28;20049;-78
2023/10/02 08:13:32;;;;;;;37.50;19.80;;;17.90;99.90;;;;;;5023278;28;20048;-79
2023/10/02 08:16:01;;;;;;;36.20;19.40;;;18.00;99.90;;;;;;5052387;28;20423;-80
2023/10/02 08:18:27;;;;;;;38.83;19.52;;;18.10;99.90;;;;;;5025143;28;20045;-78
2023/10/02 08:20:55;;;;;;;39.20;19.15;;;18.20;99.90;;;;;;5022668;28;20081;-79
2023/10/02 08:23:23;;;;;;;37.53;19.25;;;18.30;99.90;;;;;;5040546;28;20049;-79
2023/10/02 08:26:06;;;;;;;35.88;19.63;;;18.30;99.90;;;;;;5025250;28;20061;-78
2023/10/02 08:28:36;;;;;;;38.78;20.02;;;18.40;99.90;;;;;;5043905;28;20057;-80
2023/10/02 08:31:02;;;;;;;36.35;18.73;;;18.50;99.90;;;;;;4997751;28;20111;-79
2023/10/02 08:33:33;;;;;;;35.90;19.48;;;18.60;99.90;;;;;;5047165;28;20090;-79
2023/10/02 08:36:01;;;;;;;35.78;18.40;;;18.70;99.90;;;;;;5023260;28;20051;-81
2023/10/02 08:38:27;;;;;;;38.22;19.00;;;18.90;99.90;;;;;;5021480;28;20413;-79
2023/10/02 08:41:03;;;;;;;38.10;19.00;;;19.00;99.90;;;;;;5022831;28;20052;-77
2023/10/02 08:43:41;;;;;;;32.97;18.30;;;19.10;99.90;;;;;;5043386;28;20049;-77
2023/10/02 08:46:08;;;;;;;38.88;18.65;;;19.30;99.90;;;;;;5006644;28;20056;-79
2023/10/02 08:48:34;;;;;;;44.60;19.98;;;19.30;99.90;;;;;;5039815;28;20049;-77
2023/10/02 08:51:00;;;;;;;39.33;19.67;;;19.30;99.90;;;;;;5040433;28;20053;-76
2023/10/02 08:53:26;;;;;;;38.25;19.90;;;19.40;99.90;;;;;;5043114;28;20045;-77
2023/10/02 08:56:01;;;;;;;37.28;20.50;;;19.30;99.90;;;;;;5043167;28;20522;-77
2023/10/02 08:58:30;;;;;;;44.53;19.70;;;19.30;99.90;;;;;;5043092;28;20053;-77
2023/10/02 09:04:03;;;;;;;37.95;19.50;;;19.40;99.90;;;;;;5032889;28;20535;-79
2023/10/02 09:06:36;;;;;;;40.55;20.02;;;19.60;99.90;;;;;;5022468;28;20051;-78
2023/10/02 09:09:22;;;;;;;39.80;19.15;;;19.70;99.90;;;;;;5039524;28;20046;-77
2023/10/02 09:11:58;;;;;;;39.08;19.35;;;19.90;99.90;;;;;;5033072;28;20128;-76
2023/10/02 09:17:07;;;;;;;33.95;18.42;;;20.10;99.90;;;;;;5021669;28;20444;-77
2023/10/02 09:19:37;;;;;;;41.15;18.67;;;20.20;99.90;;;;;;5022381;28;20045;-78
2023/10/02 09:22:07;;;;;;;38.47;18.73;;;20.30;99.90;;;;;;5042535;28;20048;-77
2023/10/02 09:24:55;;;;;;;38.08;19.33;;;20.50;99.90;;;;;;5024098;28;20055;-78
2023/10/02 09:27:23;;;;;;;35.72;18.58;;;20.60;99.90;;;;;;5021376;28;20053;-77
2023/10/02 09:32:47;;;;;;;36.05;16.85;;;20.80;99.90;;;;;;5040894;28;20049;-80
2023/10/02 09:35:30;;;;;;;32.78;18.17;;;20.90;99.90;;;;;;5039196;28;20045;-79
2023/10/02 09:38:10;;;;;;;42.00;17.98;;;20.90;99.90;;;;;;5023070;28;20072;-80
2023/10/02 09:43:25;;;;;;;37.35;18.27;;;20.80;99.90;;;;;;5026008;28;20496;-78
2023/10/02 09:45:59;;;;;;;32.28;18.23;;;20.80;99.90;;;;;;5024070;28;20044;-79
2023/10/02 09:51:25;;;;;;;33.10;17.50;;;20.70;99.90;;;;;;5041436;28;20115;-78
2023/10/02 09:54:05;;;;;;;33.65;17.15;;;20.80;99.90;;;;;;5042390;28;20408;-78
2023/10/02 09:57:06;;;;;;;36.70;18.67;;;20.90;99.90;;;;;;5025463;28;20048;-79
2023/10/02 09:59:48;;;;;;;34.05;16.55;;;21.00;99.90;;;;;;5017942;28;20111;-80
2023/10/02 10:05:02;;;;;;;35.30;17.80;;;21.10;99.90;;;;;;5044750;28;20493;-80
2023/10/02 10:07:46;;;;;;;37.38;18.40;;;21.00;99.90;;;;;;5022715;28;20049;-80
2023/10/02 10:10:50;;;;;;;38.20;19.05;;;21.00;99.90;;;;;;5041965;28;20052;-81
2023/10/02 10:13:46;;;;;;;34.95;18.45;;;21.00;99.90;;;;;;5046516;28;20523;-78
2023/10/02 10:16:20;;;;;;;35.88;17.65;;;21.20;99.90;;;;;;5024839;28;20058;-81
2023/10/02 10:21:57;;;;;;;37.33;19.00;;;21.60;99.90;;;;;;5022974;28;19983;-82
2023/10/02 10:24:56;;;;;;;32.90;17.67;;;21.60;99.90;;;;;;5020611;28;20551;-77
2023/10/02 10:27:40;;;;;;;35.55;18.80;;;21.60;99.90;;;;;;5045053;28;20048;-79
2023/10/02 10:30:20;;;;;;;32.63;17.35;;;21.80;99.90;;;;;;5037862;28;20045;-79
2023/10/02 10:32:47;;;;;;;41.70;18.45;;;22.00;99.90;;;;;;5036775;28;20049;-81
2023/10/02 10:35:33;;;;;;;36.13;17.25;;;22.00;99.90;;;;;;5042737;28;20128;-80
2023/10/02 10:37:58;;;;;;;33.25;17.80;;;22.00;99.90;;;;;;5021095;28;20074;-79
2023/10/02 10:40:43;;;;;;;32.95;18.70;;;22.00;99.90;;;;;;5020103;28;20049;-77
2023/10/02 10:43:20;;;;;;;34.72;18.88;;;22.00;99.90;;;;;;5040959;28;20082;-80
2023/10/02 10:45:49;;;;;;;32.90;18.17;;;21.90;99.90;;;;;;5041248;28;20060;-79
2023/10/02 10:48:21;;;;;;;34.25;17.30;;;21.80;99.90;;;;;;5020206;28;20045;-79
2023/10/02 10:50:57;;;;;;;35.95;17.95;;;21.80;99.90;;;;;;5037900;28;20477;-77
2023/10/02 10:53:26;;;;;;;31.88;17.48;;;21.90;99.90;;;;;;5041643;28;20384;-80
2023/10/02 10:56:05;;;;;;;33.17;18.42;;;21.90;99.90;;;;;;5041230;28;20408;-80
2023/10/02 10:58:33;;;;;;;36.00;17.80;;;22.00;99.90;;;;;;5042033;28;20183;-80
2023/10/02 11:01:06;;;;;;;40.47;18.30;;;22.20;99.90;;;;;;5041218;28;20488;-80
2023/10/02 11:03:32;;;;;;;31.13;17.55;;;22.30;99.90;;;;;;5035443;28;20649;-80
2023/10/02 11:06:02;;;;;;;32.03;18.25;;;22.20;99.90;;;;;;5027069;28;20098;-81
2023/10/02 11:08:29;;;;;;;47.08;19.45;;;22.20;99.90;;;;;;5024642;28;20118;-80
2023/10/02 11:11:11;;;;;;;33.10;19.65;;;22.30;99.90;;;;;;5041926;28;20425;-81
2023/10/02 11:13:50;;;;;;;42.50;18.42;;;22.20;99.90;;;;;;5044540;28;20057;-78
2023/10/02 11:16:34;;;;;;;33.45;19.83;;;22.20;99.90;;;;;;5027007;28;20051;-82
2023/10/02 11:19:13;;;;;;;31.13;18.60;;;22.20;99.90;;;;;;5042653;28;20484;-80
2023/10/02 11:22:01;;;;;;;34.03;19.27;;;22.20;99.90;;;;;;5043266;28;20369;-82
2023/10/02 11:24:27;;;;;;;29.17;17.83;;;22.20;99.90;;;;;;5026520;28;20682;-79
2023/10/02 11:27:04;;;;;;;32.28;18.75;;;22.20;99.90;;;;;;5035039;28;20041;-81
2023/10/02 11:29:43;;;;;;;37.83;20.10;;;22.20;99.90;;;;;;5026995;28;20041;-78
2023/10/02 11:32:23;;;;;;;34.03;19.15;;;22.30;99.90;;;;;;5046174;28;20040;-82
2023/10/02 11:34:59;;;;;;;33.13;18.63;;;22.40;99.90;;;;;;5043329;28;20112;-80
2023/10/02 11:37:26;;;;;;;32.30;18.52;;;22.50;99.90;;;;;;5023624;28;20059;-79
2023/10/02 11:39:54;;;;;;;33.10;18.60;;;22.60;99.90;;;;;;5024720;28;20389;-79
2023/10/02 11:42:20;;;;;;;32.05;19.58;;;22.60;99.90;;;;;;5026819;28;20057;-81
2023/10/02 11:44:46;;;;;;;32.28;17.85;;;22.60;99.90;;;;;;5026971;28;20079;-81
2023/10/02 11:47:12;;;;;;;29.20;17.58;;;22.70;99.90;;;;;;5018412;28;20037;-80
2023/10/02 11:49:39;;;;;;;35.95;19.15;;;22.80;99.90;;;;;;5027003;28;20090;-80
2023/10/02 11:52:06;;;;;;;41.15;19.70;;;22.80;99.90;;;;;;5024790;28;20480;-81
2023/10/02 11:54:36;;;;;;;33.65;18.90;;;22.90;99.90;;;;;;5023831;28;20038;-81
2023/10/02 11:57:09;;;;;;;33.85;18.08;;;22.80;99.90;;;;;;5041520;28;20057;-81
2023/10/02 11:59:42;;;;;;;32.58;19.20;;;22.80;99.90;;;;;;5044502;28;20048;-81
2023/10/02 12:02:12;;;;;;;32.42;19.52;;;22.80;99.90;;;;;;5043937;28;20117;-81
2023/10/02 12:04:38;;;;;;;32.92;19.10;;;22.70;99.90;;;;;;5041492;28;20087;-82
2023/10/02 12:07:05;;;;;;;30.88;17.90;;;22.60;99.90;;;;;;5023371;28;20049;-81
2023/10/02 12:09:33;;;;;;;32.85;18.30;;;22.50;99.90;;;;;;5010102;28;20061;-80
2023/10/02 12:11:59;;;;;;;31.33;17.30;;;22.60;99.90;;;;;;5044554;28;20108;-82
2023/10/02 12:14:29;;;;;;;30.95;17.80;;;22.50;99.90;;;;;;5025333;28;20056;-81
2023/10/02 12:16:57;;;;;;;36.67;19.25;;;22.50;99.90;;;;;;5023429;28;20515;-79
2023/10/02 12:19:36;;;;;;;31.30;17.52;;;22.50;99.90;;;;;;5023448;28;20049;-81
2023/10/02 12:22:05;;;;;;;42.10;17.77;;;22.40;99.90;;;;;;5026022;28;20263;-81
2023/10/02 12:24:35;;;;;;;33.88;19.20;;;22.30;99.90;;;;;;5043139;28;20036;-79
2023/10/02 12:27:10;;;;;;;33.05;18.48;;;22.30;99.90;;;;;;5023143;28;20120;-79
2023/10/02 12:29:37;;;;;;;38.83;20.17;;;22.30;99.90;;;;;;5023661;28;20045;-82
2023/10/02 12:32:03;;;;;;;36.92;20.35;;;22.30;99.90;;;;;;5025887;28;20048;-81
2023/10/02 12:34:29;;;;;;;37.72;20.55;;;22.20;99.90;;;;;;5025804;28;20060;-79
2023/10/02 12:36:55;;;;;;;36.20;20.30;;;22.20;99.90;;;;;;5023397;28;20052;-78
2023/10/02 12:39:28;;;;;;;42.30;20.33;;;22.10;99.90;;;;;;5022260;28;20056;-81
2023/10/02 12:41:55;;;;;;;38.85;20.48;;;22.20;99.90;;;;;;5023620;28;20411;-81
2023/10/02 12:44:21;;;;;;;35.15;20.95;;;22.20;99.90;;;;;;5025679;28;20049;-80
2023/10/02 12:46:50;;;;;;;34.13;20.95;;;22.30;99.90;;;;;;5026130;28;20178;-79
2023/10/02 12:49:20;;;;;;;39.22;21.33;;;22.40;99.90;;;;;;5033932;28;20044;-80
2023/10/02 12:51:49;;;;;;;37.80;21.50;;;22.40;99.90;;;;;;5044475;28;20088;-79
2023/10/02 12:54:14;;;;;;;35.38;20.50;;;22.40;99.90;;;;;;5024500;28;20053;-80
2023/10/02 12:56:40;;;;;;;34.97;20.77;;;22.30;99.90;;;;;;5043816;28;20685;-77
2023/10/02 12:59:10;;;;;;;40.97;21.92;;;22.30;99.90;;;;;;5040900;28;20122;-81
2023/10/02 13:01:35;;;;;;;33.33;20.73;;;22.30;99.90;;;;;;5040417;28;20582;-81
2023/10/02 13:04:01;;;;;;;32.85;20.48;;;22.30;99.90;;;;;;5039885;28;20133;-80
2023/10/02 13:06:31;;;;;;;35.05;20.60;;;22.30;99.90;;;;;;5042667;28;20055;-76
2023/10/02 13:09:14;;;;;;;32.60;19.88;;;22.40;99.90;;;;;;5042878;28;20029;-78
2023/10/02 13:11:41;;;;;;;37.10;19.80;;;22.40;99.90;;;;;;5048046;28;20077;-82
2023/10/02 13:14:09;;;;;;;42.58;21.00;;;22.40;99.90;;;;;;5029543;28;20049;-78
2023/10/02 13:16:42;;;;;;;38.05;20.45;;;22.40;99.90;;;;;;5014185;28;20583;-81
2023/10/02 13:19:09;;;;;;;38.17;21.50;;;22.50;99.90;;;;;;5022262;28;20055;-80
2023/10/02 13:21:40;;;;;;;32.53;19.13;;;22.60;99.90;;;;;;5041180;28;20048;-80
2023/10/02 13:24:07;;;;;;;30.10;18.17;;;22.60;99.90;;;;;;5042033;28;20048;-80
2023/10/02 13:26:36;;;;;;;32.25;18.63;;;22.70;99.90;;;;;;5024050;28;20395;-80
2023/10/02 13:29:02;;;;;;;35.65;19.08;;;22.70;99.90;;;;;;5039341;28;20811;-79
2023/10/02 13:31:28;;;;;;;36.53;18.92;;;22.70;99.90;;;;;;5039258;28;20100;-79
2023/10/02 13:33:54;;;;;;;34.33;18.30;;;22.70;99.90;;;;;;5023668;28;20049;-80
2023/10/02 13:36:23;;;;;;;33.25;18.60;;;22.70;99.90;;;;;;5042166;28;20111;-81
2023/10/02 13:38:54;;;;;;;33.53;18.85;;;22.90;99.90;;;;;;5033900;28;20049;-79
2023/10/02 13:41:20;;;;;;;33.63;18.33;;;22.90;99.90;;;;;;5042111;28;20048;-78
2023/10/02 13:43:49;;;;;;;31.00;17.92;;;22.90;99.90;;;;;;5041853;28;20053;-81
2023/10/02 13:46:21;;;;;;;29.92;18.25;;;22.90;99.90;;;;;;5020961;28;20125;-80
2023/10/02 13:48:48;;;;;;;32.63;17.40;;;23.00;99.90;;;;;;5020992;28;20037;-81
2023/10/02 13:51:17;;;;;;;31.00;18.02;;;23.10;99.90;;;;;;5042229;28;20037;-79
2023/10/02 13:53:44;;;;;;;32.35;17.55;;;23.00;99.90;;;;;;5024193;28;20051;-79
2023/10/02 13:56:16;;;;;;;34.53;18.17;;;23.00;99.90;;;;;;5022598;28;20041;-80
2023/10/02 13:58:50;;;;;;;30.77;18.17;;;23.00;99.90;;;;;;5009630;28;20456;-80
2023/10/02 14:01:20;;;;;;;31.67;17.33;;;23.00;99.90;;;;;;5046997;28;20052;-81
2023/10/02 14:03:49;;;;;;;31.88;17.30;;;23.00;99.90;;;;;;5020980;28;20111;-76